YINO weather

Inverell North Airport
New South Wales, Australia

Public forecast

Using degrees Celsius for public forecast. Weather courtesy of forecast.io.

METAR (pilot weather report)

Closest report is Moree Airport, 70.8 nm (131.2 km) WNW. Retrieved 2019/04/19 03:00 UTC (58 minutes ago):

YMOR 190300Z AUTO 08005KT 9999 // NCD 29/10 Q1022

TAF (pilot weather forecast)

Forecast is more than 6 hours old.

Closest forecast is Tamworth Airport, 80.8 nm (149.6 km) SSW. Retrieved 2019/04/18 18:36 UTC (9 hours ago):

TAF TAF YSTW 181703Z 1818/1912 13008KT CAVOK FM190600 11012KT CAVOK